Time;durP1;ratioP1;P1;durP2;ratioP2;P2;SDS_P1;SDS_P2;PMS_P1;PMS_P2;Temp;Humidity;BMP_temperature;BMP_pressure;BME280_temperature;BME280_humidity;BME280_pressure;Samples;Min_cycle;Max_cycle;Signal;HPM_P1;HPM_P2
2020/12/11 00:00:26;;;;;;;33.88;22.10;;;0.50;99.90;;;;;;5029440;28;20026;-91
2020/12/11 00:02:51;;;;;;;32.95;21.80;;;0.50;99.90;;;;;;5029532;28;20029;-90
2020/12/11 00:05:17;;;;;;;32.95;22.70;;;0.40;99.90;;;;;;5028948;28;20025;-91
2020/12/11 00:07:43;;;;;;;36.50;22.00;;;0.40;99.90;;;;;;5032178;28;20338;-90
2020/12/11 00:10:11;;;;;;;30.98;20.65;;;0.50;99.90;;;;;;5032872;28;20453;-91
2020/12/11 00:12:39;;;;;;;36.60;23.52;;;0.50;99.90;;;;;;5032642;28;20041;-89
2020/12/11 00:15:09;;;;;;;35.50;24.08;;;0.50;99.90;;;;;;5033253;28;20052;-89
2020/12/11 00:17:35;;;;;;;33.03;22.33;;;0.50;99.90;;;;;;5014598;28;20044;-91
2020/12/11 00:20:05;;;;;;;32.20;21.00;;;0.50;99.90;;;;;;5032501;28;20030;-91
2020/12/11 00:22:31;;;;;;;32.67;22.23;;;0.60;99.90;;;;;;5036187;28;20397;-90
2020/12/11 00:24:57;;;;;;;31.83;20.73;;;0.60;99.90;;;;;;5036252;28;20036;-91
2020/12/11 00:27:23;;;;;;;29.80;21.20;;;0.60;99.90;;;;;;5053721;28;20025;-90
2020/12/11 00:29:48;;;;;;;29.30;19.63;;;0.60;99.90;;;;;;5035861;28;20052;-90
2020/12/11 00:32:14;;;;;;;30.80;19.95;;;0.70;99.90;;;;;;5053630;28;20029;-90
2020/12/11 00:34:40;;;;;;;33.35;21.23;;;0.60;99.90;;;;;;5053627;28;20072;-91
2020/12/11 00:37:06;;;;;;;31.88;21.50;;;0.70;99.90;;;;;;5035938;28;20033;-91
2020/12/11 00:39:33;;;;;;;32.67;21.45;;;0.70;99.90;;;;;;5035854;28;20380;-93
2020/12/11 00:42:00;;;;;;;34.78;24.02;;;0.70;99.90;;;;;;5035616;28;20099;-89
2020/12/11 00:44:29;;;;;;;36.58;24.02;;;0.70;99.90;;;;;;5035620;28;20017;-92
2020/12/11 00:46:55;;;;;;;30.90;21.48;;;0.70;99.90;;;;;;5034118;28;20033;-91
2020/12/11 00:49:22;;;;;;;34.38;21.70;;;0.70;99.90;;;;;;5053608;28;20032;-91
2020/12/11 00:51:52;;;;;;;33.22;21.83;;;0.70;99.90;;;;;;5053171;28;20020;-91
2020/12/11 00:54:18;;;;;;;33.72;23.13;;;0.70;99.90;;;;;;5035754;28;20121;-92
2020/12/11 00:56:45;;;;;;;31.50;21.73;;;0.70;99.90;;;;;;5035942;28;20116;-91
2020/12/11 00:59:11;;;;;;;32.35;22.13;;;0.70;99.90;;;;;;5035155;28;20021;-94
2020/12/11 01:01:39;;;;;;;30.58;20.75;;;0.70;99.90;;;;;;5039049;28;20022;-91
2020/12/11 01:04:05;;;;;;;34.92;23.08;;;0.70;99.90;;;;;;5041325;28;20476;-91
2020/12/11 01:06:30;;;;;;;33.65;22.80;;;0.70;99.90;;;;;;5038448;28;20025;-91
2020/12/11 01:08:56;;;;;;;36.13;23.38;;;0.70;99.90;;;;;;5045815;28;20036;-92
2020/12/11 01:11:22;;;;;;;33.58;23.10;;;0.80;99.90;;;;;;5054101;28;20013;-93
2020/12/11 01:13:47;;;;;;;33.85;21.75;;;0.70;99.90;;;;;;5058199;28;20031;-90
2020/12/11 01:16:13;;;;;;;32.47;21.02;;;0.70;99.90;;;;;;5060424;28;20020;-91
2020/12/11 01:18:38;;;;;;;34.83;23.45;;;0.80;99.90;;;;;;5056834;28;20036;-91
2020/12/11 01:21:04;;;;;;;36.63;25.13;;;0.80;99.90;;;;;;5042634;28;20116;-92
2020/12/11 01:23:30;;;;;;;37.45;26.13;;;0.80;99.90;;;;;;5042950;28;20109;-91
2020/12/11 01:25:55;;;;;;;38.55;24.13;;;0.80;99.90;;;;;;5025859;28;20057;-90
2020/12/11 01:28:21;;;;;;;36.03;23.20;;;0.80;99.90;;;;;;5019450;28;20128;-93
2020/12/11 01:30:47;;;;;;;34.13;22.27;;;0.70;99.90;;;;;;5019893;28;20021;-91
2020/12/11 01:33:13;;;;;;;37.97;25.08;;;0.70;99.90;;;;;;5019401;28;20025;-90
2020/12/11 01:35:38;;;;;;;38.35;24.98;;;0.70;99.90;;;;;;5025386;28;20013;-91
2020/12/11 01:38:04;;;;;;;37.33;24.42;;;0.70;99.90;;;;;;5028444;28;20025;-92
2020/12/11 01:40:37;;;;;;;36.55;24.83;;;0.70;99.90;;;;;;5047361;28;20028;-89
2020/12/11 01:43:03;;;;;;;35.20;24.52;;;0.70;99.90;;;;;;5030691;28;20412;-89
2020/12/11 01:45:29;;;;;;;38.17;24.80;;;0.70;99.90;;;;;;5011258;28;20025;-91
2020/12/11 01:47:55;;;;;;;34.20;24.52;;;0.70;99.90;;;;;;5032188;28;20031;-90
2020/12/11 01:50:21;;;;;;;37.67;24.50;;;0.70;99.90;;;;;;5028166;28;20084;-91
2020/12/11 01:52:48;;;;;;;37.25;24.48;;;0.70;99.90;;;;;;5030517;28;20017;-90
2020/12/11 01:55:14;;;;;;;35.60;23.85;;;0.70;99.90;;;;;;5029916;28;20428;-90
2020/12/11 01:58:00;;;;;;;37.75;24.00;;;0.60;99.90;;;;;;5033102;28;20057;-91
2020/12/11 02:00:26;;;;;;;34.08;23.17;;;0.70;99.90;;;;;;5029307;28;20025;-91
2020/12/11 02:03:07;;;;;;;33.58;23.05;;;0.60;99.90;;;;;;5044357;28;20091;-91
2020/12/11 02:05:34;;;;;;;36.63;23.13;;;0.60;99.90;;;;;;5026740;28;20071;-88
2020/12/11 02:07:59;;;;;;;37.38;22.92;;;0.60;99.90;;;;;;5032977;28;20094;-92
2020/12/11 02:10:26;;;;;;;35.38;22.58;;;0.60;99.90;;;;;;5032837;28;20487;-91
2020/12/11 02:12:52;;;;;;;34.70;22.70;;;0.60;99.90;;;;;;5030046;28;20025;-92
2020/12/11 02:15:17;;;;;;;34.60;21.60;;;0.60;99.90;;;;;;5023793;28;20128;-91
2020/12/11 02:17:43;;;;;;;37.63;23.33;;;0.60;99.90;;;;;;5018708;28;20024;-92
2020/12/11 02:20:09;;;;;;;35.35;22.50;;;0.60;99.90;;;;;;5036234;28;20374;-89
2020/12/11 02:22:35;;;;;;;35.30;22.63;;;0.50;99.90;;;;;;5036188;28;20409;-90
2020/12/11 02:25:00;;;;;;;35.20;23.05;;;0.50;99.90;;;;;;5017319;28;20052;-88
2020/12/11 02:27:26;;;;;;;37.92;23.85;;;0.50;99.90;;;;;;5016948;28;20029;-92
2020/12/11 02:29:52;;;;;;;34.78;22.42;;;0.50;99.90;;;;;;5034873;28;20033;-89
2020/12/11 02:32:18;;;;;;;39.05;24.95;;;0.50;99.90;;;;;;5034437;28;20064;-89
2020/12/11 02:34:44;;;;;;;39.72;24.20;;;0.50;99.90;;;;;;5016853;28;20084;-90
2020/12/11 02:37:14;;;;;;;35.50;22.98;;;0.50;99.90;;;;;;5017361;28;20041;-89
2020/12/11 02:39:41;;;;;;;36.83;23.58;;;0.60;99.90;;;;;;5017344;28;20026;-91
2020/12/11 02:42:07;;;;;;;37.20;22.58;;;0.50;99.90;;;;;;5017974;28;20041;-91
2020/12/11 02:44:56;;;;;;;37.85;24.08;;;0.50;99.90;;;;;;5016041;28;20108;-88
2020/12/11 02:47:21;;;;;;;38.92;24.08;;;0.50;99.90;;;;;;5015232;28;20036;-88
2020/12/11 02:49:47;;;;;;;39.67;23.25;;;0.50;99.90;;;;;;5035298;28;20033;-90
2020/12/11 02:52:14;;;;;;;36.20;23.25;;;0.50;99.90;;;;;;5018041;28;20028;-90
2020/12/11 02:54:40;;;;;;;35.65;23.23;;;0.40;99.90;;;;;;5018137;28;20032;-91
2020/12/11 02:57:05;;;;;;;38.28;23.80;;;0.40;99.90;;;;;;5017619;28;20026;-91
2020/12/11 02:59:31;;;;;;;35.20;22.67;;;0.40;99.90;;;;;;5018023;28;20022;-90
2020/12/11 03:01:56;;;;;;;35.13;23.17;;;0.40;99.90;;;;;;5017871;28;20468;-89
2020/12/11 03:04:22;;;;;;;33.65;21.27;;;0.40;99.90;;;;;;5017201;28;20055;-91
2020/12/11 03:06:48;;;;;;;36.17;23.23;;;0.40;99.90;;;;;;5017043;28;20065;-88
2020/12/11 03:09:14;;;;;;;33.20;20.70;;;0.30;99.90;;;;;;5018149;28;20456;-90
2020/12/11 03:11:39;;;;;;;34.05;22.45;;;0.40;99.90;;;;;;5017773;28;20075;-90
2020/12/11 03:14:12;;;;;;;34.08;21.70;;;0.30;99.90;;;;;;5017805;28;20060;-91
2020/12/11 03:16:38;;;;;;;41.47;24.73;;;0.30;99.90;;;;;;5017575;28;20044;-90
2020/12/11 03:19:04;;;;;;;35.92;22.88;;;0.30;99.90;;;;;;5017321;28;20037;-90
2020/12/11 03:21:35;;;;;;;33.70;21.60;;;0.30;99.90;;;;;;5017558;28;20040;-90
2020/12/11 03:24:01;;;;;;;34.15;21.23;;;0.20;99.90;;;;;;5001435;28;20452;-90
2020/12/11 03:26:26;;;;;;;30.25;19.23;;;0.20;99.90;;;;;;5017683;28;20029;-90
2020/12/11 03:28:52;;;;;;;32.55;20.35;;;0.20;99.90;;;;;;5034744;28;20136;-90
2020/12/11 03:31:18;;;;;;;32.17;20.88;;;0.10;99.90;;;;;;5017176;28;20025;-88
2020/12/11 03:33:45;;;;;;;38.20;22.58;;;0.20;99.90;;;;;;5000572;28;20056;-88
2020/12/11 03:36:10;;;;;;;37.88;23.10;;;0.10;99.90;;;;;;5001496;28;20029;-90
2020/12/11 03:38:39;;;;;;;32.42;20.98;;;0.10;99.90;;;;;;5017361;28;20018;-90
2020/12/11 03:41:04;;;;;;;30.88;21.35;;;0.20;99.90;;;;;;5016625;28;20025;-90
2020/12/11 03:43:30;;;;;;;31.75;20.98;;;0.10;99.90;;;;;;5016901;28;20433;-91
2020/12/11 03:45:55;;;;;;;33.17;19.65;;;0.20;99.90;;;;;;5017674;28;20029;-91
2020/12/11 03:48:21;;;;;;;31.90;19.70;;;0.10;99.90;;;;;;5017804;28;20029;-90
2020/12/11 03:50:46;;;;;;;31.65;19.88;;;0.10;99.90;;;;;;5035132;28;20454;-90
2020/12/11 03:53:12;;;;;;;26.55;16.77;;;0.10;99.90;;;;;;5017230;28;20025;-90
2020/12/11 03:55:38;;;;;;;28.52;19.00;;;0.10;99.90;;;;;;5017484;28;20028;-91
2020/12/11 03:58:03;;;;;;;32.58;20.23;;;0.10;99.90;;;;;;5017147;28;20029;-89
2020/12/11 04:00:29;;;;;;;33.00;22.85;;;0.10;99.90;;;;;;5017063;28;20422;-89
2020/12/11 04:02:54;;;;;;;35.78;23.55;;;0.10;99.90;;;;;;5017129;28;20087;-91
2020/12/11 04:05:20;;;;;;;38.65;22.73;;;0.20;99.90;;;;;;5034557;28;20109;-90
2020/12/11 04:07:46;;;;;;;32.17;20.75;;;0.10;99.90;;;;;;5034369;28;20030;-90
2020/12/11 04:10:11;;;;;;;31.40;18.92;;;0.10;99.90;;;;;;5017300;28;20479;-90
2020/12/11 04:12:37;;;;;;;30.33;19.35;;;0.10;99.90;;;;;;5017353;28;20025;-90
2020/12/11 04:15:03;;;;;;;28.70;18.17;;;0.10;99.90;;;;;;5017020;28;20021;-90
2020/12/11 04:17:29;;;;;;;29.85;18.08;;;0.00;99.90;;;;;;5017547;28;20017;-88
2020/12/11 04:19:55;;;;;;;29.48;18.20;;;0.10;99.90;;;;;;5017097;28;20445;-90
2020/12/11 04:22:23;;;;;;;25.70;16.55;;;0.10;99.90;;;;;;5034252;28;20037;-90
2020/12/11 04:24:50;;;;;;;29.30;18.08;;;0.00;99.90;;;;;;5016801;28;20052;-90
2020/12/11 04:27:16;;;;;;;35.40;22.05;;;0.00;99.90;;;;;;5016734;28;20052;-88
2020/12/11 04:29:42;;;;;;;35.75;22.52;;;0.00;99.90;;;;;;5016546;28;20034;-90
2020/12/11 04:32:07;;;;;;;32.65;21.35;;;0.10;99.90;;;;;;5000367;28;20029;-90
2020/12/11 04:34:33;;;;;;;36.42;23.48;;;0.10;99.90;;;;;;5016865;28;20112;-90
2020/12/11 04:36:58;;;;;;;33.38;22.45;;;0.20;99.90;;;;;;5016537;28;20030;-89
2020/12/11 04:39:24;;;;;;;32.20;20.23;;;0.20;99.90;;;;;;5015158;28;20064;-89
2020/12/11 04:41:53;;;;;;;33.90;21.52;;;0.20;99.90;;;;;;5015737;28;20622;-89
2020/12/11 04:44:19;;;;;;;32.75;21.00;;;0.30;99.90;;;;;;5016693;28;20354;-90
2020/12/11 04:46:46;;;;;;;38.70;25.75;;;0.30;99.90;;;;;;5033977;28;20061;-88
2020/12/11 04:49:14;;;;;;;44.38;28.85;;;0.30;99.90;;;;;;5033218;28;20104;-90
2020/12/11 04:51:51;;;;;;;38.53;25.23;;;0.30;99.90;;;;;;5034577;28;20026;-90
2020/12/11 04:54:21;;;;;;;36.40;23.27;;;0.40;99.90;;;;;;5020241;28;20018;-89
2020/12/11 04:56:51;;;;;;;34.55;21.90;;;0.40;99.90;;;;;;5037834;28;20036;-88
2020/12/11 04:59:18;;;;;;;38.33;23.75;;;0.40;99.90;;;;;;5018506;28;20053;-90
2020/12/11 05:01:46;;;;;;;38.33;25.50;;;0.40;99.90;;;;;;5019385;28;20020;-91
2020/12/11 05:04:12;;;;;;;39.78;25.35;;;0.40;99.90;;;;;;5019826;28;20469;-91
2020/12/11 05:06:43;;;;;;;36.60;23.58;;;0.40;99.90;;;;;;5019766;28;20072;-91
2020/12/11 05:09:18;;;;;;;42.35;26.00;;;0.40;99.90;;;;;;5019402;28;20030;-90
2020/12/11 05:11:46;;;;;;;37.55;24.70;;;0.40;99.90;;;;;;5019683;28;20032;-89
2020/12/11 05:14:23;;;;;;;38.45;24.35;;;0.40;99.90;;;;;;5019579;28;20091;-88
2020/12/11 05:17:04;;;;;;;42.92;27.00;;;0.40;99.90;;;;;;5019341;28;20030;-89
2020/12/11 05:19:32;;;;;;;37.05;24.15;;;0.40;99.90;;;;;;5019509;28;20021;-88
2020/12/11 05:22:16;;;;;;;42.80;26.88;;;0.40;99.90;;;;;;5019365;28;20038;-87
2020/12/11 05:24:50;;;;;;;40.33;26.27;;;0.40;99.90;;;;;;5019356;28;20065;-88
2020/12/11 05:27:36;;;;;;;42.90;27.33;;;0.40;99.90;;;;;;5036609;28;20021;-87
2020/12/11 05:30:20;;;;;;;38.13;24.95;;;0.40;99.90;;;;;;5037010;28;20029;-89
2020/12/11 05:32:51;;;;;;;35.35;22.67;;;0.50;99.90;;;;;;5019105;28;20021;-89
2020/12/11 05:35:21;;;;;;;38.47;23.80;;;0.50;99.90;;;;;;5019226;28;20477;-89
2020/12/11 05:37:47;;;;;;;38.63;24.90;;;0.60;99.90;;;;;;5019128;28;20477;-89
2020/12/11 05:40:34;;;;;;;43.35;27.90;;;0.70;99.90;;;;;;5036950;28;20021;-88
2020/12/11 05:43:10;;;;;;;37.70;24.35;;;0.80;99.90;;;;;;5026537;28;20022;-89
2020/12/11 05:45:38;;;;;;;32.97;20.67;;;0.90;99.90;;;;;;5028174;28;20031;-88
2020/12/11 05:48:05;;;;;;;32.83;20.92;;;0.90;99.90;;;;;;5030389;28;20044;-89
2020/12/11 05:50:32;;;;;;;30.95;20.20;;;1.00;99.90;;;;;;5040585;28;20057;-88
2020/12/11 05:52:57;;;;;;;35.83;22.75;;;1.00;99.90;;;;;;5042885;28;20010;-88
2020/12/11 05:55:25;;;;;;;35.30;22.83;;;1.00;99.90;;;;;;5040027;28;20485;-86
2020/12/11 05:57:56;;;;;;;37.85;24.80;;;1.10;99.90;;;;;;5019862;28;20025;-88
2020/12/11 06:00:22;;;;;;;35.80;22.85;;;1.10;99.90;;;;;;5019592;28;20029;-90
2020/12/11 06:02:49;;;;;;;39.00;24.20;;;1.10;99.90;;;;;;5018887;28;20072;-89
2020/12/11 06:05:22;;;;;;;37.88;25.52;;;1.20;99.90;;;;;;5017979;28;20033;-90
2020/12/11 06:07:49;;;;;;;38.47;25.52;;;1.20;99.90;;;;;;5018786;28;20021;-91
2020/12/11 06:10:25;;;;;;;35.00;23.38;;;1.20;99.90;;;;;;5018736;28;20026;-91
2020/12/11 06:12:57;;;;;;;37.53;24.85;;;1.20;99.90;;;;;;5018728;28;20112;-88
2020/12/11 06:15:44;;;;;;;35.20;24.00;;;1.30;99.90;;;;;;5002799;28;20033;-88
2020/12/11 06:18:22;;;;;;;35.15;23.80;;;1.30;99.90;;;;;;5018587;28;20080;-88
2020/12/11 06:20:48;;;;;;;38.10;24.23;;;1.30;99.90;;;;;;5018239;28;20044;-89
2020/12/11 06:23:21;;;;;;;34.15;22.02;;;1.30;99.90;;;;;;5018158;28;20052;-89
2020/12/11 06:25:54;;;;;;;36.40;24.35;;;1.40;99.90;;;;;;5017889;28;20026;-88
2020/12/11 06:28:50;;;;;;;36.40;24.60;;;1.40;99.90;;;;;;5018107;28;20021;-90
2020/12/11 06:31:22;;;;;;;35.92;23.05;;;1.40;99.90;;;;;;5016034;28;20549;-89
2020/12/11 06:33:53;;;;;;;33.20;21.53;;;1.40;99.90;;;;;;5035717;28;20083;-88
2020/12/11 06:36:20;;;;;;;34.00;21.88;;;1.40;99.90;;;;;;5035685;28;20025;-90
2020/12/11 06:38:57;;;;;;;36.33;23.60;;;1.50;99.90;;;;;;5035499;28;20085;-90
2020/12/11 06:41:32;;;;;;;33.22;21.98;;;1.50;99.90;;;;;;5035697;28;20017;-91
2020/12/11 06:44:18;;;;;;;36.30;24.33;;;1.50;99.90;;;;;;5018056;28;20033;-90
2020/12/11 06:47:09;;;;;;;32.92;21.30;;;1.50;99.90;;;;;;5035107;28;20389;-91
2020/12/11 06:50:05;;;;;;;29.80;20.42;;;1.50;99.90;;;;;;5017751;28;20022;-90
2020/12/11 06:52:34;;;;;;;34.47;22.35;;;1.60;99.90;;;;;;5015524;28;20083;-88
2020/12/11 06:55:01;;;;;;;38.42;24.45;;;1.50;99.90;;;;;;5015252;28;20553;-90
2020/12/11 06:57:33;;;;;;;36.00;23.85;;;1.60;99.90;;;;;;5017759;28;20022;-87
2020/12/11 07:00:19;;;;;;;33.25;22.95;;;1.60;99.90;;;;;;5015787;28;20052;-90
2020/12/11 07:02:45;;;;;;;28.83;20.15;;;1.60;99.90;;;;;;5016548;28;20039;-91
2020/12/11 07:05:13;;;;;;;33.25;22.33;;;1.60;99.90;;;;;;5019718;28;20030;-90
2020/12/11 07:07:38;;;;;;;31.27;20.80;;;1.60;99.90;;;;;;5028926;28;20030;-90
2020/12/11 07:10:05;;;;;;;32.17;21.45;;;1.60;99.90;;;;;;5034970;28;20048;-88
2020/12/11 07:12:34;;;;;;;29.48;19.35;;;1.60;99.90;;;;;;4997447;28;20117;-88
2020/12/11 07:15:16;;;;;;;33.47;22.27;;;1.70;99.90;;;;;;4981174;28;20390;-88
2020/12/11 07:17:42;;;;;;;32.35;21.25;;;1.70;99.90;;;;;;4997878;28;20030;-90
2020/12/11 07:20:09;;;;;;;29.70;21.50;;;1.70;99.90;;;;;;4997268;28;20029;-87
2020/12/11 07:22:36;;;;;;;30.38;20.77;;;1.70;99.90;;;;;;5018091;28;20314;-89
2020/12/11 07:25:02;;;;;;;31.00;19.98;;;1.70;99.90;;;;;;5017560;28;20029;-90
2020/12/11 07:27:28;;;;;;;32.28;22.30;;;1.70;99.90;;;;;;5034670;28;20029;-88
2020/12/11 07:29:54;;;;;;;32.83;21.75;;;1.70;99.90;;;;;;5018146;28;20033;-91
2020/12/11 07:32:28;;;;;;;30.95;20.75;;;1.80;99.90;;;;;;5016962;28;20030;-90
2020/12/11 07:34:54;;;;;;;29.20;19.85;;;1.80;99.90;;;;;;5016571;28;20037;-89
2020/12/11 07:37:20;;;;;;;28.73;18.27;;;1.80;99.90;;;;;;5016986;28;20033;-90
2020/12/11 07:39:46;;;;;;;32.95;21.98;;;1.80;99.90;;;;;;5016926;28;20022;-90
2020/12/11 07:42:20;;;;;;;30.33;20.83;;;1.80;99.90;;;;;;5017021;28;20025;-89
2020/12/11 07:44:47;;;;;;;29.80;19.10;;;1.90;99.90;;;;;;5034556;28;20071;-91
2020/12/11 07:47:15;;;;;;;27.17;17.98;;;1.90;99.90;;;;;;5017076;28;20108;-89
2020/12/11 07:49:43;;;;;;;23.88;17.08;;;1.90;99.90;;;;;;5016735;28;20034;-91
2020/12/11 07:52:10;;;;;;;28.55;19.80;;;1.90;99.90;;;;;;5017245;28;20373;-91
2020/12/11 07:54:41;;;;;;;27.33;18.38;;;1.90;99.90;;;;;;5017017;28;20041;-93
2020/12/11 07:57:10;;;;;;;27.67;19.33;;;1.90;99.90;;;;;;5034352;28;20105;-93
2020/12/11 07:59:36;;;;;;;28.80;18.98;;;2.00;99.90;;;;;;5016744;28;20469;-91
2020/12/11 08:02:04;;;;;;;30.85;21.20;;;2.00;99.90;;;;;;5034575;28;20072;-92
2020/12/11 08:04:30;;;;;;;30.63;20.70;;;2.00;99.90;;;;;;5016858;28;20029;-91
2020/12/11 08:07:00;;;;;;;31.20;21.90;;;2.00;99.90;;;;;;5018478;28;20060;-89
2020/12/11 08:09:33;;;;;;;30.30;21.48;;;2.00;99.90;;;;;;5017070;28;20037;-88
2020/12/11 08:12:19;;;;;;;30.42;21.35;;;2.00;99.90;;;;;;5033819;28;20033;-88
2020/12/11 08:14:46;;;;;;;27.48;19.90;;;2.00;99.90;;;;;;5034586;28;20466;-91
2020/12/11 08:17:13;;;;;;;30.15;20.85;;;2.00;99.90;;;;;;5016553;28;20096;-88
2020/12/11 08:19:43;;;;;;;28.75;19.77;;;2.00;99.90;;;;;;5016807;28;20021;-90
2020/12/11 08:22:15;;;;;;;28.92;19.67;;;2.10;99.90;;;;;;5016792;28;20469;-87
2020/12/11 08:24:42;;;;;;;28.70;19.98;;;2.10;99.90;;;;;;5013462;28;20141;-90
2020/12/11 08:27:24;;;;;;;28.52;19.80;;;2.10;99.90;;;;;;5031123;28;20026;-89
2020/12/11 08:30:13;;;;;;;27.30;18.27;;;2.10;99.90;;;;;;5018152;28;20049;-89
2020/12/11 08:32:39;;;;;;;27.48;19.25;;;2.10;99.90;;;;;;5016850;28;20120;-91
2020/12/11 08:35:18;;;;;;;27.10;19.05;;;2.10;99.90;;;;;;5017074;28;20444;-89
2020/12/11 08:37:58;;;;;;;24.80;17.80;;;2.20;99.90;;;;;;5017146;28;20025;-91
2020/12/11 08:40:28;;;;;;;31.30;20.92;;;2.10;99.90;;;;;;5018477;28;20034;-91
2020/12/11 08:46:20;;;;;;;27.88;19.63;;;2.20;99.90;;;;;;5017751;28;20562;-92
2020/12/11 08:51:42;;;;;;;23.48;16.52;;;2.20;99.90;;;;;;5009113;28;20074;-92
2020/12/11 08:54:17;;;;;;;23.85;16.60;;;2.20;99.90;;;;;;5018057;28;20018;-90
2020/12/11 08:56:45;;;;;;;28.10;19.10;;;2.30;99.90;;;;;;5016969;28;20128;-93
2020/12/11 08:59:10;;;;;;;26.52;18.55;;;2.30;99.90;;;;;;5017827;28;20025;-91
2020/12/11 09:01:36;;;;;;;28.33;18.35;;;2.30;99.90;;;;;;5016607;28;20033;-92
2020/12/11 09:04:02;;;;;;;28.30;18.05;;;2.30;99.90;;;;;;5017418;28;20033;-91
2020/12/11 09:06:27;;;;;;;27.58;18.48;;;2.30;99.90;;;;;;5017022;28;20121;-92
2020/12/11 09:08:53;;;;;;;28.42;19.60;;;2.30;99.90;;;;;;5016616;28;20030;-89
2020/12/11 09:11:21;;;;;;;27.30;18.35;;;2.40;99.90;;;;;;5017636;28;20030;-91
2020/12/11 09:13:46;;;;;;;24.92;16.83;;;2.40;99.90;;;;;;5017465;28;20048;-91
2020/12/11 09:16:12;;;;;;;27.33;18.90;;;2.40;99.90;;;;;;5016449;28;20037;-90
2020/12/11 09:18:38;;;;;;;28.55;19.48;;;2.40;99.90;;;;;;5016163;28;20385;-91
2020/12/11 09:21:03;;;;;;;26.95;17.15;;;2.40;99.90;;;;;;5015957;28;20033;-90
2020/12/11 09:23:29;;;;;;;29.88;20.83;;;2.40;99.90;;;;;;5016122;28;20041;-92
2020/12/11 09:25:57;;;;;;;30.35;20.45;;;2.30;99.90;;;;;;5018278;28;20029;-93
2020/12/11 09:28:24;;;;;;;28.98;19.92;;;2.30;99.90;;;;;;5035613;28;20021;-92
2020/12/11 09:30:52;;;;;;;31.48;21.85;;;2.30;99.90;;;;;;5035875;28;20465;-93
2020/12/11 09:33:21;;;;;;;31.13;21.67;;;2.20;99.90;;;;;;5035984;28;20025;-92
2020/12/11 09:35:49;;;;;;;29.38;21.20;;;2.20;99.90;;;;;;5039447;28;20032;-91
2020/12/11 09:38:15;;;;;;;27.58;19.35;;;2.20;99.90;;;;;;5051280;28;20101;-90
2020/12/11 09:41:25;;;;;;;;;;;;;;;;;;;;;
2020/12/11 09:55:03;;;;;;;27.52;18.58;;;2.50;99.90;;;;;;5013765;28;20474;-93
2020/12/11 10:00:26;;;;;;;23.52;16.20;;;2.60;99.90;;;;;;5029299;28;20030;-93
2020/12/11 10:03:01;;;;;;;23.65;16.30;;;2.60;99.90;;;;;;5018769;28;20099;-93
2020/12/11 10:05:29;;;;;;;22.65;16.80;;;2.70;99.90;;;;;;5036402;28;20033;-92
2020/12/11 10:07:56;;;;;;;29.30;21.10;;;2.70;99.90;;;;;;5034841;28;20034;-91
2020/12/11 10:10:22;;;;;;;30.92;22.10;;;2.80;99.90;;;;;;5035341;28;20030;-91
2020/12/11 10:12:49;;;;;;;29.45;21.02;;;2.80;99.90;;;;;;5035121;28;20076;-90
2020/12/11 10:15:20;;;;;;;26.85;19.08;;;2.80;99.90;;;;;;5035436;28;20121;-94
2020/12/11 10:17:55;;;;;;;27.63;20.63;;;2.80;99.90;;;;;;5035117;28;20033;-92
2020/12/11 10:20:20;;;;;;;31.90;20.92;;;2.90;99.90;;;;;;5035679;28;20034;-94
2020/12/11 10:22:52;;;;;;;28.58;19.10;;;2.90;99.90;;;;;;5038325;28;20049;-93
2020/12/11 10:25:19;;;;;;;30.33;20.85;;;2.90;99.90;;;;;;5038311;28;20071;-93
2020/12/11 10:27:45;;;;;;;28.00;20.30;;;3.00;99.90;;;;;;5035964;28;20033;-91
2020/12/11 10:30:14;;;;;;;27.63;20.42;;;3.00;99.90;;;;;;5036111;28;20120;-91
2020/12/11 10:32:40;;;;;;;28.25;19.98;;;3.10;99.90;;;;;;5036245;28;20068;-91
2020/12/11 10:35:09;;;;;;;28.17;19.42;;;3.20;99.90;;;;;;5036447;28;20029;-90
2020/12/11 10:37:58;;;;;;;26.27;18.25;;;3.20;99.90;;;;;;5037149;28;20071;-92
2020/12/11 10:40:32;;;;;;;26.25;18.67;;;3.20;99.90;;;;;;5037696;28;20078;-92
2020/12/11 10:42:58;;;;;;;29.92;20.83;;;3.20;99.90;;;;;;5038898;28;20074;-89
2020/12/11 10:45:33;;;;;;;31.52;20.25;;;3.30;99.90;;;;;;5019825;28;20029;-89
2020/12/11 10:47:58;;;;;;;29.30;21.35;;;3.30;99.90;;;;;;5053464;28;20120;-90
2020/12/11 10:50:24;;;;;;;26.25;19.10;;;3.30;99.90;;;;;;5053388;28;20025;-91
2020/12/11 10:52:50;;;;;;;28.25;19.13;;;3.20;99.90;;;;;;5035543;28;20086;-91
2020/12/11 10:55:17;;;;;;;28.55;21.23;;;3.20;99.90;;;;;;5053632;28;20033;-91
2020/12/11 10:57:43;;;;;;;30.98;21.00;;;3.00;99.90;;;;;;5035525;28;20029;-90
2020/12/11 11:00:10;;;;;;;29.15;21.10;;;3.10;99.90;;;;;;5035881;28;20518;-91
2020/12/11 11:02:38;;;;;;;28.67;19.73;;;3.00;99.90;;;;;;5036009;28;20049;-91
2020/12/11 11:05:03;;;;;;;32.03;23.25;;;3.10;99.90;;;;;;5035624;28;20404;-89
2020/12/11 11:07:31;;;;;;;30.75;21.27;;;3.00;99.90;;;;;;5035323;28;20033;-91
2020/12/11 11:28:30;;;;;;;26.20;18.13;;;3.10;99.90;;;;;;5053760;28;20075;-91
2020/12/11 11:30:58;;;;;;;33.78;23.08;;;3.10;99.90;;;;;;5034362;28;20025;-94
2020/12/11 11:33:24;;;;;;;32.72;22.40;;;3.10;99.90;;;;;;5053049;28;20637;-95
2020/12/11 11:35:53;;;;;;;32.53;22.42;;;3.10;99.90;;;;;;5035888;28;20059;-94
2020/12/11 11:38:25;;;;;;;33.40;22.17;;;3.10;99.90;;;;;;5053667;28;20021;-94
2020/12/11 11:40:52;;;;;;;33.63;22.52;;;3.10;99.90;;;;;;5034753;28;20037;-95
2020/12/11 11:43:32;;;;;;;31.55;22.13;;;3.10;99.90;;;;;;5034707;28;20087;-95
2020/12/11 11:45:59;;;;;;;38.22;23.83;;;3.10;99.90;;;;;;5035095;28;20028;-94
2020/12/11 11:48:24;;;;;;;33.95;23.50;;;3.10;99.90;;;;;;5035045;28;20029;-93
2020/12/11 11:55:11;;;;;;;29.50;20.40;;;3.10;99.90;;;;;;4987308;28;20102;-95
2020/12/11 11:58:20;;;;;;;;;;;;;;;;;;;;;
2020/12/11 12:00:52;;;;;;;36.22;24.55;;;3.10;99.90;;;;;;5049136;28;20031;-91
2020/12/11 12:03:27;;;;;;;35.58;23.20;;;3.10;99.90;;;;;;5048862;28;20074;-92
2020/12/11 12:05:58;;;;;;;34.45;23.73;;;3.20;99.90;;;;;;5045082;28;20095;-91
2020/12/11 12:08:30;;;;;;;33.47;21.80;;;3.20;99.90;;;;;;5047450;28;20644;-92
2020/12/11 12:11:06;;;;;;;32.28;21.85;;;3.20;99.90;;;;;;5047804;28;20116;-89
2020/12/11 12:13:32;;;;;;;29.80;19.63;;;3.20;99.90;;;;;;5055296;28;20037;-92
2020/12/11 12:15:58;;;;;;;27.85;19.67;;;3.20;99.90;;;;;;5056380;28;20495;-92
2020/12/11 12:18:23;;;;;;;35.55;23.48;;;3.20;99.90;;;;;;5056569;28;20040;-93
2020/12/11 12:21:16;;;;;;;;;;;;;;;;;;;;;
2020/12/11 12:30:10;;;;;;;33.10;21.52;;;3.20;99.90;;;;;;5055348;28;20467;-94
2020/12/11 12:38:22;;;;;;;32.10;21.08;;;3.30;99.90;;;;;;5054899;28;20592;-92
2020/12/11 12:44:02;;;;;;;29.85;20.50;;;3.40;99.90;;;;;;5053633;28;20040;-92
2020/12/11 12:46:36;;;;;;;31.60;21.70;;;3.40;99.90;;;;;;5033884;28;20497;-93
2020/12/11 12:49:25;;;;;;;34.00;24.17;;;3.50;99.90;;;;;;5034288;28;20091;-92
2020/12/11 12:51:52;;;;;;;28.75;19.73;;;3.40;99.90;;;;;;5018685;28;20030;-96
2020/12/11 12:54:50;;;;;;;38.58;25.90;;;3.50;99.90;;;;;;5037314;28;20024;-94
2020/12/11 13:06:01;;;;;;;36.85;22.95;;;3.50;99.90;;;;;;5077368;28;20048;-91
2020/12/11 13:08:43;;;;;;;30.77;20.52;;;3.50;99.90;;;;;;5061641;28;20013;-92
2020/12/11 13:11:10;;;;;;;29.27;19.65;;;3.50;99.90;;;;;;5045816;28;20035;-91
2020/12/11 13:13:43;;;;;;;35.35;23.48;;;3.60;99.90;;;;;;5054367;28;20029;-92
2020/12/11 13:16:22;;;;;;;;;;;;;;;;;;;;;
2020/12/11 13:19:06;;;;;;;29.77;18.77;;;3.60;99.90;;;;;;5054720;28;20017;-94
2020/12/11 13:21:40;;;;;;;27.20;18.63;;;3.60;99.90;;;;;;5035989;28;20139;-94
2020/12/11 13:26:53;;;;;;;;;;;3.60;99.90;;;;;;5047430;28;19916;-93
2020/12/11 13:29:19;;;;;;;24.67;16.08;;;3.70;99.90;;;;;;5053425;28;19913;-94
2020/12/11 13:32:26;;;;;;;;;;;;;;;;;;;;;
2020/12/11 13:35:02;;;;;;;25.48;17.10;;;3.70;99.90;;;;;;4972209;28;20047;-95
2020/12/11 13:37:42;;;;;;;26.30;17.67;;;3.80;99.90;;;;;;5049990;28;20025;-93
2020/12/11 13:40:24;;;;;;;28.00;18.77;;;3.80;99.90;;;;;;5035288;28;20041;-94
2020/12/11 13:42:53;;;;;;;25.08;17.35;;;3.80;99.90;;;;;;5035155;28;20060;-93
2020/12/11 13:45:21;;;;;;;23.77;17.38;;;3.80;99.90;;;;;;5035288;28;20578;-95
2020/12/11 13:48:18;;;;;;;23.90;16.35;;;3.80;99.90;;;;;;5035730;28;20029;-93
2020/12/11 13:50:45;;;;;;;23.17;16.27;;;3.90;99.90;;;;;;5021360;28;20036;-93
2020/12/11 13:53:26;;;;;;;27.27;17.98;;;3.90;99.90;;;;;;5034291;28;20036;-92
2020/12/11 13:55:58;;;;;;;26.17;17.30;;;3.90;99.90;;;;;;5036771;28;20036;-95
2020/12/11 13:58:27;;;;;;;21.70;15.23;;;3.90;99.90;;;;;;5016383;28;20025;-94
2020/12/11 14:00:53;;;;;;;20.52;15.02;;;3.90;99.90;;;;;;5024023;28;20048;-94
2020/12/11 14:03:44;;;;;;;21.30;14.57;;;4.00;99.90;;;;;;5052586;28;20489;-94
2020/12/11 14:06:10;;;;;;;19.58;13.60;;;4.00;99.90;;;;;;5034613;28;20171;-94